ENKR/KKN METAR and TAF weather

Enter ICAO airport designator
Station Type Date Time Source
ENKR METAR 2019/12/07 09:50 UTC NOAA

ENKR 070950Z 16004KT 9999 FEW013 SCT026 BKN035 M08/M09 Q0983 RMK WIND 731FT 11004KT


Station Type Date Time Source
ENKR Decoded METAR 2019/12/07 09:50 UTC NOAA

Kirkenes Lufthavn, Norway (ENKR) 69-44N 029-54E 91M
Dec 07, 2019 - 04:50 AM EST / 2019.12.07 0950 UTC
Wind: from the SSE (160 degrees) at 5 MPH (4 KT):0
Visibility: greater than 7 mile(s):0
Sky conditions: mostly cloudy
Temperature: 17 F (-8 C)
Windchill: 8 F (-13 C):1
Dew Point: 15 F (-9 C)
Relative Humidity: 92%
Pressure (altimeter): 29.03 in. Hg (0983 hPa)
ob: ENKR 070950Z 16004KT 9999 FEW013 SCT026 BKN035 M08/M09 Q0983 RMK WIND 731FT 11004KT
cycle: 10

Station Type Date Time Source
ENKR TAF 2017/08/31 21:36 UTC NOAA

TAF TAF ENKR 312300Z 3121/0109 29005KT 9999 FEW020 SCT040

Example: see airport list